Time;durP1;ratioP1;P1;durP2;ratioP2;P2;SDS_P1;SDS_P2;PMS_P1;PMS_P2;Temp;Humidity;BMP_temperature;BMP_pressure;BME280_temperature;BME280_humidity;BME280_pressure;Samples;Min_cycle;Max_cycle;Signal;HPM_P1;HPM_P2
2023/05/07 01:05:14;;;;;;;1.15;1.00;;;;;;;13.31;100.00;99880.13;4924887;29;20410;-93
2023/05/07 01:07:42;;;;;;;1.15;0.68;;;;;;;13.06;100.00;99831.75;4882922;29;20044;-93
2023/05/07 01:10:08;;;;;;;1.13;0.47;;;;;;;13.31;100.00;99882.91;4914543;29;20051;-93
2023/05/07 01:12:35;;;;;;;0.70;0.70;;;;;;;13.29;100.00;99879.84;4882224;29;20561;-93
2023/05/07 01:15:02;;;;;;;0.55;0.35;;;;;;;13.23;100.00;99867.72;4896152;29;20067;-93
2023/05/07 01:17:28;;;;;;;0.68;0.57;;;;;;;13.24;100.00;99872.06;4884825;29;20077;-93
2023/05/07 01:19:54;;;;;;;1.88;1.00;;;;;;;13.23;100.00;99867.72;4893178;29;20497;-93
2023/05/07 01:22:31;;;;;;;0.52;0.52;;;;;;;13.19;100.00;99872.66;4895736;29;20032;-93
2023/05/07 01:24:59;;;;;;;0.73;0.73;;;;;;;13.22;100.00;99880.13;4899823;29;20052;-92
2023/05/07 01:27:26;;;;;;;0.77;0.77;;;;;;;13.24;100.00;99881.19;4898308;29;21082;-93
2023/05/07 01:29:52;;;;;;;1.45;1.20;;;;;;;13.28;100.00;99881.06;4895490;29;20512;-94
2023/05/07 01:32:23;;;;;;;0.68;0.68;;;;;;;13.26;100.00;99889.13;4876657;29;20107;-93
2023/05/07 01:34:50;;;;;;;0.50;0.50;;;;;;;13.31;100.00;99888.50;4877882;29;20041;-93
2023/05/07 01:37:16;;;;;;;0.82;0.80;;;;;;;13.10;100.00;99865.06;4901036;29;20068;-92
2023/05/07 01:39:42;;;;;;;1.40;1.30;;;;;;;13.29;100.00;99882.63;4900605;29;20071;-93
2023/05/07 01:42:08;;;;;;;1.17;0.95;;;;;;;13.21;100.00;99878.56;4881241;29;20453;-93
2023/05/07 01:44:33;;;;;;;2.15;1.98;;;;;;;13.18;100.00;99876.69;4876898;29;20044;-94
2023/05/07 01:46:59;;;;;;;0.77;0.77;;;;;;;13.19;100.00;99875.44;4882633;29;20119;-94
2023/05/07 01:49:25;;;;;;;1.45;1.35;;;;;;;13.18;100.00;99877.47;4903378;29;20060;-94
2023/05/07 01:51:51;;;;;;;1.63;1.52;;;;;;;13.08;100.00;99859.13;4883309;29;20036;-92
2023/05/07 01:54:17;;;;;;;0.77;0.77;;;;;;;13.14;100.00;99864.94;4903745;29;20051;-93
2023/05/07 01:56:42;;;;;;;1.33;1.23;;;;;;;13.21;100.00;99875.78;4880145;29;20050;-93
2023/05/07 01:59:08;;;;;;;0.82;0.82;;;;;;;13.22;100.00;99874.56;4882783;29;20047;-93
2023/05/07 02:01:34;;;;;;;0.82;0.82;;;;;;;13.06;100.00;99854.03;4878494;29;20032;-93
2023/05/07 02:04:00;;;;;;;0.88;0.75;;;;;;;13.14;100.00;99864.94;4861007;29;20040;-92
2023/05/07 02:06:28;;;;;;;1.17;1.02;;;;;;;13.05;100.00;99860.06;4866182;29;20044;-91
2023/05/07 02:08:58;;;;;;;1.52;1.42;;;;;;;13.11;100.00;99880.53;4865635;29;20624;-92
2023/05/07 02:11:25;;;;;;;0.25;0.25;;;;;;;13.07;100.00;99886.22;4859548;29;20050;-91
2023/05/07 02:13:50;;;;;;;1.60;1.50;;;;;;;12.90;100.00;99857.03;4875797;29;20032;-92
2023/05/07 02:16:16;;;;;;;0.90;0.85;;;;;;;12.99;100.00;99865.44;4876937;29;20379;-92
2023/05/07 02:18:42;;;;;;;0.30;0.30;;;;;;;13.06;100.00;99876.28;4879664;29;20135;-90
2023/05/07 02:21:08;;;;;;;1.23;1.13;;;;;;;13.04;100.00;99864.06;4862660;29;20387;-91
2023/05/07 02:23:33;;;;;;;0.77;0.77;;;;;;;13.11;100.00;99882.53;4864132;29;20092;-90
2023/05/07 02:25:59;;;;;;;0.80;0.80;;;;;;;13.14;100.00;99874.06;4881408;29;20047;-90
2023/05/07 02:28:25;;;;;;;2.00;1.00;;;;;;;13.14;100.00;99876.06;4863634;29;20040;-90
2023/05/07 02:31:00;;;;;;;5.15;1.70;;;;;;;12.93;100.00;99839.44;4876158;29;20044;-90
2023/05/07 02:33:26;;;;;;;1.55;1.42;;;;;;;12.95;100.00;99838.97;4861697;29;20040;-91
2023/05/07 02:35:52;;;;;;;1.98;1.67;;;;;;;13.19;100.00;99878.22;4865076;29;20107;-91
2023/05/07 02:38:18;;;;;;;2.75;0.68;;;;;;;13.17;100.00;99864.00;4863632;29;20044;-91
2023/05/07 02:40:44;;;;;;;1.30;1.20;;;;;;;13.21;100.00;99879.34;4863930;29;21205;-90
2023/05/07 02:43:09;;;;;;;1.27;1.05;;;;;;;13.17;100.00;99862.00;4862489;29;20075;-90
2023/05/07 02:45:37;;;;;;;0.85;0.85;;;;;;;13.17;100.00;99864.78;4861633;29;20120;-91
2023/05/07 02:48:08;;;;;;;1.75;1.55;;;;;;;13.16;100.00;99868.00;4873641;29;20067;-91
2023/05/07 02:50:33;;;;;;;4.00;2.17;;;;;;;13.03;100.00;99849.38;4863757;29;20060;-90
2023/05/07 02:52:59;;;;;;;1.15;1.05;;;;;;;13.12;100.00;99845.09;4875727;29;20583;-90
2023/05/07 02:55:25;;;;;;;2.03;1.65;;;;;;;12.93;100.00;99833.88;4864135;29;20502;-90
2023/05/07 02:57:50;;;;;;;1.33;0.88;;;;;;;13.04;100.00;99850.94;4859880;29;20040;-90
2023/05/07 03:00:18;;;;;;;1.27;1.23;;;;;;;13.08;100.00;99859.13;4861014;29;20036;-91
2023/05/07 03:02:52;;;;;;;0.40;0.40;;;;;;;13.00;100.00;99861.44;4865315;29;20044;-90
2023/05/07 03:05:18;;;;;;;0.95;0.82;;;;;;;13.02;100.00;99861.00;4862585;29;20044;-93
2023/05/07 03:07:45;;;;;;;0.75;0.75;;;;;;;12.99;100.00;99859.09;4866618;29;20078;-92
2023/05/07 03:10:12;;;;;;;0.63;0.63;;;;;;;13.00;100.00;99855.88;4863843;29;20558;-93
2023/05/07 03:12:37;;;;;;;0.80;0.77;;;;;;;12.85;100.00;99837.41;4862893;29;20044;-92
2023/05/07 03:15:03;;;;;;;1.60;1.45;;;;;;;13.08;100.00;99878.63;4866831;29;20391;-92
2023/05/07 03:17:29;;;;;;;1.45;0.80;;;;;;;13.02;100.00;99881.22;4862176;29;20040;-91
2023/05/07 03:19:55;;;;;;;0.95;0.95;;;;;;;12.93;100.00;99860.94;4866317;29;20048;-91
2023/05/07 03:22:21;;;;;;;0.20;0.20;;;;;;;12.84;100.00;99858.09;4863474;29;20164;-90
2023/05/07 03:24:46;;;;;;;0.93;0.93;;;;;;;12.93;100.00;99884.00;4878331;29;20047;-89
2023/05/07 03:27:12;;;;;;;1.73;1.63;;;;;;;12.80;100.00;99858.25;4879423;29;20127;-91
2023/05/07 03:29:37;;;;;;;0.98;0.98;;;;;;;12.84;100.00;99858.09;4861223;29;20447;-89
2023/05/07 03:32:03;;;;;;;1.30;0.93;;;;;;;13.03;100.00;99882.78;4877283;29;20778;-90
2023/05/07 03:34:29;;;;;;;1.08;1.05;;;;;;;12.94;100.00;99865.28;4864221;29;20040;-90
2023/05/07 03:36:54;;;;;;;1.27;0.93;;;;;;;13.06;100.00;99881.13;4877481;29;20044;-90
2023/05/07 03:39:22;;;;;;;1.15;0.75;;;;;;;13.04;100.00;99870.44;4881138;29;20046;-93
2023/05/07 03:41:48;;;;;;;2.40;1.85;;;;;;;12.86;100.00;99850.84;4891588;29;20517;-90
2023/05/07 03:44:13;;;;;;;1.42;1.35;;;;;;;13.03;100.00;99871.66;4887981;29;20202;-92
2023/05/07 03:46:40;;;;;;;2.08;1.77;;;;;;;13.11;100.00;99872.16;4868970;29;20050;-91
2023/05/07 03:49:07;;;;;;;1.13;1.02;;;;;;;13.02;100.00;99861.00;4861216;29;20068;-89
2023/05/07 03:51:33;;;;;;;0.47;0.47;;;;;;;12.95;100.00;99845.31;4867721;29;20083;-92
2023/05/07 03:53:59;;;;;;;1.23;1.13;;;;;;;13.04;100.00;99856.50;4907964;29;20047;-92
2023/05/07 03:56:27;;;;;;;2.95;1.88;;;;;;;13.18;100.00;99879.50;4875317;29;20131;-90
2023/05/07 03:58:54;;;;;;;1.60;1.50;;;;;;;13.15;100.00;99892.31;4878616;29;20514;-92
2023/05/07 04:01:20;;;;;;;1.38;1.27;;;;;;;13.12;100.00;99881.31;4864421;29;20034;-92
2023/05/07 04:03:47;;;;;;;2.95;1.30;;;;;;;12.99;100.00;99864.66;4881188;29;20063;-92
2023/05/07 04:06:15;;;;;;;1.55;1.45;;;;;;;13.20;100.00;99896.50;4881518;29;20041;-92
2023/05/07 04:08:43;;;;;;;2.13;1.92;;;;;;;13.28;100.00;99906.13;4863626;29;20040;-91
2023/05/07 04:11:09;;;;;;;0.60;0.52;;;;;;;13.04;100.00;99881.56;4881177;29;20051;-92
2023/05/07 04:13:36;;;;;;;1.00;1.00;;;;;;;12.84;100.00;99861.66;4865818;29;20072;-92
2023/05/07 04:16:05;;;;;;;2.63;0.77;;;;;;;13.12;100.00;99898.00;4889464;29;20055;-93
2023/05/07 04:18:31;;;;;;;0.70;0.70;;;;;;;13.21;100.00;99917.56;4880151;29;20068;-91
2023/05/07 04:20:57;;;;;;;0.95;0.95;;;;;;;13.07;100.00;99896.56;4909859;29;20110;-91
2023/05/07 04:23:22;;;;;;;1.60;1.25;;;;;;;13.22;100.00;99922.69;4884563;29;20036;-91
2023/05/07 04:25:48;;;;;;;1.63;1.20;;;;;;;13.18;100.00;99910.91;4864577;29;20051;-91
2023/05/07 04:28:25;;;;;;;1.88;1.55;;;;;;;13.10;100.00;99904.06;4895010;29;20044;-92
2023/05/07 04:30:51;;;;;;;1.05;1.05;;;;;;;13.11;100.00;99897.22;4858932;29;20498;-91
2023/05/07 04:33:17;;;;;;;0.57;0.57;;;;;;;13.25;100.00;99918.19;4880654;29;20075;-91
2023/05/07 04:35:44;;;;;;;0.50;0.50;;;;;;;13.33;100.00;99927.81;4896094;29;20121;-91
2023/05/07 04:38:10;;;;;;;2.17;1.02;;;;;;;13.50;100.00;99937.47;4881264;29;20126;-90
2023/05/07 04:40:36;;;;;;;1.23;1.13;;;;;;;13.56;100.00;99932.84;4881323;29;20036;-90
2023/05/07 04:43:02;;;;;;;1.75;0.90;;;;;;;13.43;100.00;99916.25;4915634;29;20035;-91
2023/05/07 04:45:32;;;;;;;1.88;1.67;;;;;;;13.63;100.00;99940.16;4873526;29;20040;-90
2023/05/07 04:47:57;;;;;;;2.03;1.92;;;;;;;13.71;100.00;99935.84;4890259;29;20040;-92
2023/05/07 04:50:24;;;;;;;3.65;2.17;;;;;;;13.72;100.00;99940.94;4894920;29;20062;-90
2023/05/07 04:52:54;;;;;;;0.88;0.52;;;;;;;13.69;100.00;99944.66;4898596;29;20111;-91
2023/05/07 04:55:22;;;;;;;1.35;1.25;;;;;;;13.58;100.00;99952.69;4879836;29;20052;-93
2023/05/07 04:57:50;;;;;;;1.40;0.80;;;;;;;13.57;100.00;99945.56;4901184;29;20047;-93
2023/05/07 05:00:19;;;;;;;3.25;2.08;;;;;;;13.51;100.00;99944.59;4878142;29;20032;-93
2023/05/07 05:02:45;;;;;;;0.90;0.75;;;;;;;13.60;100.00;99958.56;4863753;29;20052;-93
2023/05/07 05:05:15;;;;;;;1.13;1.02;;;;;;;13.60;100.00;99941.84;4879054;29;20051;-91
2023/05/07 05:07:40;;;;;;;1.20;1.15;;;;;;;13.69;100.00;99929.94;4877815;29;20434;-93
2023/05/07 05:10:07;;;;;;;1.67;1.15;;;;;;;13.78;100.00;99947.47;4883191;29;20059;-91
2023/05/07 05:12:35;;;;;;;1.13;1.02;;;;;;;13.79;100.00;99937.84;4879355;29;20044;-92
2023/05/07 05:15:01;;;;;;;0.80;0.63;;;;;;;14.01;100.00;99955.25;4890921;29;20079;-93
2023/05/07 05:17:27;;;;;;;0.98;0.77;;;;;;;14.10;100.00;99950.94;4907023;29;21221;-94
2023/05/07 05:19:52;;;;;;;1.67;1.33;;;;;;;14.14;100.00;99943.19;4907803;29;20032;-93
2023/05/07 05:22:18;;;;;;;1.80;1.65;;;;;;;14.18;100.00;99944.59;4893535;29;20047;-93
2023/05/07 05:24:44;;;;;;;0.77;0.70;;;;;;;14.30;100.00;99962.44;4878342;29;20502;-93
2023/05/07 05:27:10;;;;;;;0.63;0.63;;;;;;;14.39;100.00;99970.84;4859505;29;20055;-93
2023/05/07 05:29:36;;;;;;;1.60;1.50;;;;;;;14.20;100.00;99935.75;4882659;29;20517;-92
2023/05/07 05:32:01;;;;;;;3.22;1.92;;;;;;;14.39;100.00;99956.88;4877178;29;20974;-93
2023/05/07 05:34:29;;;;;;;0.95;0.95;;;;;;;14.36;100.00;99946.63;4877757;29;20044;-93
2023/05/07 05:36:55;;;;;;;0.88;0.80;;;;;;;14.45;100.00;99949.44;4891930;29;20045;-94
2023/05/07 05:39:22;;;;;;;1.42;1.33;;;;;;;14.47;100.00;99941.38;4889207;29;20582;-94
2023/05/07 05:41:48;;;;;;;0.82;0.82;;;;;;;14.62;100.00;99961.06;4896435;29;20040;-92
2023/05/07 05:44:14;;;;;;;0.43;0.40;;;;;;;14.60;100.00;99961.50;4877688;29;20084;-92
2023/05/07 05:46:41;;;;;;;1.02;0.88;;;;;;;14.64;100.00;99958.59;4863997;29;20105;-94
2023/05/07 05:49:09;;;;;;;0.75;0.73;;;;;;;14.59;100.00;99937.66;4876146;29;20040;-94
2023/05/07 05:51:37;;;;;;;0.95;0.95;;;;;;;14.76;100.00;99940.88;4890180;29;20044;-92
2023/05/07 05:54:04;;;;;;;3.10;0.95;;;;;;;14.92;100.00;99946.88;4865846;29;20040;-91
2023/05/07 05:56:31;;;;;;;0.70;0.70;;;;;;;15.26;100.00;99970.09;4865003;29;20131;-91
2023/05/07 05:58:57;;;;;;;0.40;0.40;;;;;;;15.52;100.00;99967.69;4887934;29;20123;-93
2023/05/07 06:01:24;;;;;;;2.03;1.92;;;;;;;15.67;100.00;99946.97;4866792;29;20048;-92
2023/05/07 06:03:51;;;;;;;1.33;1.08;;;;;;;16.02;100.00;99971.59;4860875;29;20128;-93
2023/05/07 06:06:17;;;;;;;4.43;1.60;;;;;;;16.00;100.00;99941.31;4876977;29;20120;-92
2023/05/07 06:08:43;;;;;;;1.48;1.38;;;;;;;16.25;100.00;99968.06;4876275;29;20044;-94
2023/05/07 06:11:11;;;;;;;1.92;1.25;;;;;;;16.11;100.00;99924.00;4875819;29;20096;-93
2023/05/07 06:13:40;;;;;;;0.82;0.82;;;;;;;16.36;100.00;99943.09;4891784;29;20458;-94
2023/05/07 06:16:06;;;;;;;1.83;1.73;;;;;;;16.55;100.00;99961.28;4862577;29;20076;-91
2023/05/07 06:18:31;;;;;;;0.75;0.75;;;;;;;16.89;100.00;99962.72;4878744;29;20408;-93
2023/05/07 06:20:57;;;;;;;2.58;1.40;;;;;;;17.09;100.00;99946.00;4891540;29;20041;-92
2023/05/07 06:23:27;;;;;;;3.45;1.83;;;;;;;17.42;100.00;99971.00;4860061;29;20414;-94
2023/05/07 06:25:52;;;;;;;0.82;0.82;;;;;;;17.46;100.00;99965.97;4893101;29;20048;-93
2023/05/07 06:28:22;;;;;;;1.33;1.23;;;;;;;17.52;100.00;99975.22;4875328;29;20047;-93
2023/05/07 06:30:49;;;;;;;2.60;1.65;;;;;;;17.50;100.00;99958.13;4892750;29;20414;-91
2023/05/07 06:33:16;;;;;;;0.90;0.68;;;;;;;17.88;100.00;99981.66;4876539;29;20045;-92
2023/05/07 06:35:42;;;;;;;6.35;1.60;;;;;;;18.13;100.00;99980.97;4888623;29;20044;-94
2023/05/07 06:38:12;;;;;;;1.48;1.38;;;;;;;18.04;100.00;99950.22;4891490;29;20056;-94
2023/05/07 06:40:39;;;;;;;1.00;0.98;;;;;;;18.56;100.00;99984.88;4857553;29;20044;-95
2023/05/07 06:43:05;;;;;;;1.30;1.20;;;;;;;18.76;100.00;99989.69;4881197;29;20032;-94
2023/05/07 06:45:46;;;;;;;3.95;2.72;;;;;;;18.71;100.00;99974.31;4864482;29;20081;-94
2023/05/07 06:48:12;;;;;;;4.28;1.17;;;;;;;18.76;100.00;99992.50;4877224;29;20047;-94
2023/05/07 06:50:51;;;;;;;1.40;1.30;;;;;;;18.80;100.00;99993.06;4865310;29;20045;-92
2023/05/07 06:53:17;;;;;;;1.73;1.27;;;;;;;18.57;100.00;99964.72;4850144;29;20064;-92
2023/05/07 06:55:43;;;;;;;1.55;1.38;;;;;;;18.73;100.00;99980.19;4875441;29;20135;-93
2023/05/07 06:58:10;;;;;;;0.88;0.88;;;;;;;19.07;100.00;99984.13;4872086;29;20037;-93
2023/05/07 07:00:38;;;;;;;1.50;1.08;;;;;;;19.42;100.00;99987.53;4876975;29;20047;-93
2023/05/07 07:03:04;;;;;;;0.98;0.93;;;;;;;19.57;100.00;99964.13;4877810;29;20052;-93
2023/05/07 07:05:30;;;;;;;1.13;0.88;;;;;;;19.72;100.00;99976.78;4873640;29;20044;-91
2023/05/07 07:07:57;;;;;;;1.55;0.93;;;;;;;20.07;100.00;99986.94;4865285;29;20044;-94
2023/05/07 07:10:23;;;;;;;0.70;0.70;;;;;;;20.29;100.00;99996.34;4874631;29;20300;-93
2023/05/07 07:12:52;;;;;;;0.43;0.43;;;;;;;20.34;100.00;99980.75;4898363;29;20526;-96
2023/05/07 07:15:20;;;;;;;0.77;0.75;;;;;;;20.61;100.00;99988.53;4884459;29;20032;-93
2023/05/07 07:17:47;;;;;;;0.98;0.80;;;;;;;20.60;100.00;99974.94;4877423;29;20533;-94
2023/05/07 07:20:13;;;;;;;0.35;0.35;;;;;;;20.83;100.00;99982.16;4888860;29;20032;-94
2023/05/07 07:22:40;;;;;;;0.43;0.43;;;;;;;21.00;100.00;99982.97;4885310;29;20428;-95
2023/05/07 07:25:06;;;;;;;0.55;0.55;;;;;;;20.88;100.00;99972.94;4867616;29;20044;-94
2023/05/07 07:27:32;;;;;;;1.73;0.43;;;;;;;20.66;100.00;99961.63;4893305;29;20055;-94
2023/05/07 07:29:57;;;;;;;1.73;1.05;;;;;;;20.59;100.00;99979.00;4896038;29;20046;-94
2023/05/07 07:32:24;;;;;;;0.63;0.45;;;;;;;20.44;100.00;99974.38;4889510;29;20052;-94
2023/05/07 07:34:50;;;;;;;1.10;0.50;;;;;;;20.88;100.00;99984.22;4893630;29;20100;-94
2023/05/07 07:37:16;;;;;;;2.15;0.98;;;;;;;21.05;100.00;99993.50;4862681;29;20104;-95
2023/05/07 07:39:41;;;;;;;1.13;0.70;;;;;;;21.19;100.00;99986.84;4863890;29;20536;-94
2023/05/07 07:42:08;;;;;;;1.27;1.00;;;;;;;20.61;100.00;99976.47;4890966;29;20040;-94
2023/05/07 07:44:34;;;;;;;2.00;1.55;;;;;;;20.60;100.00;100003.09;4890851;29;20468;-95
2023/05/07 07:47:05;;;;;;;0.80;0.80;;;;;;;20.79;100.00;99999.31;4873192;29;20037;-95
2023/05/07 07:49:32;;;;;;;0.75;0.73;;;;;;;20.89;100.00;99995.00;4871042;29;20054;-94
2023/05/07 07:52:01;;;;;;;1.00;0.68;;;;;;;21.10;100.00;99995.56;4870182;29;20037;-93
2023/05/07 07:54:29;;;;;;;1.55;0.68;;;;;;;21.21;100.00;99983.53;4884089;29;20086;-94
2023/05/07 07:56:55;;;;;;;1.45;0.85;;;;;;;21.32;100.00;99989.97;4885259;29;20479;-93
2023/05/07 07:59:21;;;;;;;1.27;0.95;;;;;;;21.50;100.00;99987.91;4894870;29;20048;-93
2023/05/07 08:01:50;;;;;;;0.43;0.43;;;;;;;21.86;98.19;99998.13;4893653;29;20122;-94
2023/05/07 08:04:16;;;;;;;0.55;0.50;;;;;;;22.24;89.70;99985.25;4896689;29;20131;-95
2023/05/07 08:06:42;;;;;;;0.13;0.13;;;;;;;22.14;89.29;99973.44;4888623;29;20174;-95
2023/05/07 08:09:09;;;;;;;0.57;0.43;;;;;;;22.26;86.68;99997.56;4870712;29;20051;-94
2023/05/07 08:11:35;;;;;;;0.38;0.32;;;;;;;22.34;84.18;99992.13;4862221;29;20040;-95
2023/05/07 08:14:02;;;;;;;0.95;0.75;;;;;;;22.37;84.42;99984.66;4882381;29;20426;-96
2023/05/07 08:16:29;;;;;;;0.35;0.35;;;;;;;22.67;82.28;99957.28;4911457;29;20482;-94
2023/05/07 08:18:55;;;;;;;0.22;0.20;;;;;;;22.40;82.55;99983.66;4885201;29;20139;-94
2023/05/07 08:21:20;;;;;;;0.30;0.30;;;;;;;22.56;85.55;99957.38;4875816;29;20402;-95
2023/05/07 08:23:46;;;;;;;0.40;0.38;;;;;;;23.03;82.67;99975.88;4883306;29;20044;-96
2023/05/07 08:26:11;;;;;;;0.73;0.50;;;;;;;23.09;82.10;99982.25;4902494;29;20483;-96
2023/05/07 08:28:37;;;;;;;0.47;0.47;;;;;;;22.90;78.89;99995.47;4894901;29;20690;-94
2023/05/07 08:31:07;;;;;;;0.30;0.30;;;;;;;22.81;79.13;99984.47;4861158;29;20047;-94
2023/05/07 08:33:38;;;;;;;0.30;0.30;;;;;;;22.75;75.28;100000.72;4876662;29;20067;-95
2023/05/07 08:36:07;;;;;;;1.08;0.22;;;;;;;22.65;79.83;99985.31;4881993;29;20043;-94
2023/05/07 08:38:33;;;;;;;0.25;0.25;;;;;;;22.96;76.48;99996.22;4913647;29;20036;-93
2023/05/07 08:40:59;;;;;;;0.43;0.43;;;;;;;22.65;74.81;99982.47;4890155;29;20557;-96
2023/05/07 08:43:28;;;;;;;0.93;0.65;;;;;;;23.02;71.87;99988.47;4872927;29;20112;-96
2023/05/07 08:45:55;;;;;;;1.10;0.57;;;;;;;22.66;72.49;99967.84;4896023;29;20093;-94
2023/05/07 08:48:26;;;;;;;0.65;0.65;;;;;;;22.77;74.52;99973.44;4895726;29;20123;-94
2023/05/07 08:51:03;;;;;;;0.10;0.10;;;;;;;23.23;74.19;99986.78;4919239;29;20054;-94
2023/05/07 08:53:28;;;;;;;0.28;0.22;;;;;;;23.50;70.49;99989.94;4864221;29;20036;-95
2023/05/07 08:55:54;;;;;;;0.55;0.50;;;;;;;23.47;69.81;99991.75;4879109;29;20058;-94
2023/05/07 08:58:21;;;;;;;0.43;0.43;;;;;;;23.83;68.90;99991.69;4878750;29;20119;-95
2023/05/07 09:00:47;;;;;;;0.57;0.47;;;;;;;23.18;69.02;99984.75;4892348;29;20044;-94
2023/05/07 09:03:13;;;;;;;1.35;0.60;;;;;;;23.15;75.19;100013.34;4905945;29;20466;-94
2023/05/07 09:05:43;;;;;;;0.28;0.28;;;;;;;22.95;75.98;99974.88;4867769;29;20130;-95
2023/05/07 09:08:15;;;;;;;0.65;0.60;;;;;;;23.53;77.21;100008.72;4885091;29;20391;-96
2023/05/07 09:10:41;;;;;;;1.50;0.98;;;;;;;23.51;80.36;100000.75;4862128;29;20051;-96
2023/05/07 09:13:06;;;;;;;0.30;0.30;;;;;;;23.39;81.70;99973.00;4858833;29;20037;-96
2023/05/07 09:15:32;;;;;;;1.10;0.52;;;;;;;23.67;75.47;99999.81;4900819;29;20048;-93
2023/05/07 09:18:01;;;;;;;0.80;0.40;;;;;;;23.97;76.44;99984.88;4885548;29;20403;-93
2023/05/07 09:20:31;;;;;;;0.28;0.28;;;;;;;24.41;69.75;100011.97;4881310;29;20188;-95
2023/05/07 09:22:57;;;;;;;0.20;0.20;;;;;;;24.12;65.72;99971.81;4879974;29;20036;-96
2023/05/07 09:25:29;;;;;;;0.50;0.50;;;;;;;24.50;67.36;100008.78;4863155;29;20048;-95
2023/05/07 09:27:55;;;;;;;0.52;0.52;;;;;;;24.29;72.92;99993.56;4897954;29;20501;-96
2023/05/07 09:30:21;;;;;;;0.77;0.77;;;;;;;24.60;71.96;100010.69;4879490;29;20091;-94
2023/05/07 09:32:47;;;;;;;0.88;0.40;;;;;;;24.71;65.55;99998.41;4879630;29;20188;-93
2023/05/07 09:35:17;;;;;;;0.50;0.50;;;;;;;24.60;63.86;99993.69;4891475;29;20051;-93
2023/05/07 09:37:46;;;;;;;1.00;0.90;;;;;;;24.35;68.42;99988.56;4880815;29;20410;-93
2023/05/07 09:40:27;;;;;;;2.83;0.20;;;;;;;24.29;67.35;99973.72;4885195;29;20052;-89
2023/05/07 09:42:54;;;;;;;0.30;0.30;;;;;;;24.23;66.31;99984.34;4887275;29;20577;-94
2023/05/07 09:45:29;;;;;;;0.35;0.35;;;;;;;24.44;72.43;99980.47;4861851;29;20083;-93
2023/05/07 09:47:58;;;;;;;0.52;0.52;;;;;;;25.12;66.88;100000.19;4874966;29;20039;-92
2023/05/07 09:50:30;;;;;;;0.43;0.43;;;;;;;24.92;65.01;99988.09;4878135;29;20410;-94
2023/05/07 09:52:57;;;;;;;0.52;0.52;;;;;;;24.53;63.21;99962.31;4863662;29;20058;-94
2023/05/07 09:55:24;;;;;;;0.43;0.43;;;;;;;24.70;62.48;99991.22;4877983;29;20046;-92
2023/05/07 09:57:53;;;;;;;0.38;0.38;;;;;;;24.48;66.50;99988.69;4872772;29;20123;-93
2023/05/07 10:00:21;;;;;;;0.60;0.60;;;;;;;24.53;64.94;99982.94;4868094;29;20044;-92
2023/05/07 10:02:51;;;;;;;0.75;0.75;;;;;;;24.75;66.62;99979.03;4877011;29;20135;-93
2023/05/07 10:05:22;;;;;;;1.10;1.00;;;;;;;25.23;65.49;100011.41;4886441;29;20048;-91
2023/05/07 10:07:50;;;;;;;2.35;0.40;;;;;;;24.85;64.72;99983.06;4880815;29;20138;-92
2023/05/07 10:10:17;;;;;;;0.60;0.43;;;;;;;24.71;63.96;99986.34;4877612;29;20076;-92
2023/05/07 10:12:45;;;;;;;0.10;0.10;;;;;;;23.98;68.45;99964.47;4894148;29;20463;-92
2023/05/07 10:15:16;;;;;;;0.68;0.68;;;;;;;23.90;63.99;99983.38;4882378;29;20048;-92
2023/05/07 10:17:48;;;;;;;0.25;0.25;;;;;;;24.08;63.67;99968.50;4893849;29;20128;-91
2023/05/07 10:20:14;;;;;;;0.30;0.30;;;;;;;24.15;63.46;99967.94;4877990;29;20040;-91
2023/05/07 10:22:46;;;;;;;1.02;0.50;;;;;;;24.23;67.03;99973.00;4880125;29;20040;-92
2023/05/07 10:25:26;;;;;;;0.40;0.40;;;;;;;24.13;65.11;99979.03;4877231;29;20040;-92
2023/05/07 10:27:53;;;;;;;0.25;0.25;;;;;;;24.17;67.97;99975.91;4877154;29;20036;-91
2023/05/07 10:30:24;;;;;;;0.65;0.52;;;;;;;24.77;66.31;100010.47;4894705;29;20111;-92
2023/05/07 10:32:51;;;;;;;1.38;0.95;;;;;;;24.73;66.74;100006.41;4911470;29;20673;-94
2023/05/07 10:35:26;;;;;;;0.80;0.80;;;;;;;24.61;64.79;99991.59;4879624;29;20052;-91
2023/05/07 10:37:52;;;;;;;0.63;0.43;;;;;;;24.66;60.05;100007.03;4898388;29;20423;-91
2023/05/07 10:40:20;;;;;;;1.17;0.93;;;;;;;24.53;60.21;99985.78;4894725;29;20036;-94
2023/05/07 10:43:04;;;;;;;0.50;0.50;;;;;;;24.46;60.84;100008.31;4862059;29;20053;-92
2023/05/07 10:45:35;;;;;;;0.85;0.65;;;;;;;24.60;61.29;100007.84;4895060;29;20127;-90
2023/05/07 10:48:13;;;;;;;0.38;0.38;;;;;;;24.42;60.71;99985.16;4884782;29;20075;-92
2023/05/07 10:50:41;;;;;;;0.40;0.38;;;;;;;24.23;61.20;99985.09;4866070;29;20278;-89
2023/05/07 10:53:16;;;;;;;1.08;0.40;;;;;;;24.32;61.48;100009.50;4896322;29;20447;-91
2023/05/07 10:55:52;;;;;;;0.55;0.47;;;;;;;23.94;66.34;99972.50;4889570;29;20066;-92
2023/05/07 14:52:25;;;;;;;0.40;0.40;;;;;;;24.51;55.70;99919.53;4910957;29;20048;-93
2023/05/07 14:54:51;;;;;;;0.77;0.75;;;;;;;24.73;55.98;99936.25;4877516;29;20098;-93
2023/05/07 14:57:18;;;;;;;0.47;0.47;;;;;;;24.85;54.72;99954.69;4880323;29;20044;-92
2023/05/07 14:59:44;;;;;;;0.68;0.50;;;;;;;24.49;57.57;99947.69;4870440;29;20150;-92
2023/05/07 15:02:11;;;;;;;0.43;0.38;;;;;;;23.99;58.44;99915.03;4876727;29;20426;-93
2023/05/07 15:04:38;;;;;;;0.60;0.60;;;;;;;24.22;59.50;99926.13;4863055;29;20047;-92
2023/05/07 15:07:03;;;;;;;0.80;0.50;;;;;;;24.24;59.46;99920.69;4881428;29;20048;-92
2023/05/07 15:09:29;;;;;;;0.75;0.75;;;;;;;24.22;60.30;99926.13;4868138;29;20051;-93
2023/05/07 15:11:56;;;;;;;1.23;0.98;;;;;;;24.12;60.08;99937.81;4864450;29;20067;-92
2023/05/07 15:14:22;;;;;;;0.85;0.57;;;;;;;23.93;60.18;99900.19;4881086;29;20410;-92
2023/05/07 15:16:48;;;;;;;3.22;0.50;;;;;;;24.25;59.16;99919.41;4882990;29;20048;-93
2023/05/07 15:19:16;;;;;;;0.52;0.47;;;;;;;24.27;58.57;99917.53;4879683;29;20051;-93
2023/05/07 15:21:42;;;;;;;0.75;0.63;;;;;;;24.28;59.17;99935.31;4862970;29;20056;-91
2023/05/07 15:24:08;;;;;;;1.98;1.83;;;;;;;24.30;59.86;99927.06;4859900;29;20047;-89
2023/05/07 15:26:34;;;;;;;0.30;0.30;;;;;;;24.02;58.26;99916.06;4871481;29;20055;-89
2023/05/07 15:29:02;;;;;;;0.32;0.32;;;;;;;24.11;60.11;99941.94;4872832;29;20048;-89
2023/05/07 15:31:28;;;;;;;1.08;0.95;;;;;;;24.07;60.09;99935.78;4860417;29;20044;-89
2023/05/07 15:33:56;;;;;;;0.47;0.30;;;;;;;23.95;59.53;99940.06;4871786;29;20554;-89
2023/05/07 15:36:22;;;;;;;0.98;0.57;;;;;;;23.74;60.32;99938.25;4874530;29;20078;-89
2023/05/07 15:38:47;;;;;;;0.63;0.63;;;;;;;23.49;60.16;99932.56;4878351;29;20489;-89
2023/05/07 15:41:13;;;;;;;0.95;0.85;;;;;;;23.33;61.76;99921.38;4889582;29;20032;-89
2023/05/07 15:43:48;;;;;;;0.30;0.30;;;;;;;23.39;62.13;99951.16;4889423;29;20044;-89
2023/05/07 15:46:21;;;;;;;1.13;0.77;;;;;;;23.21;63.81;99943.34;4882451;29;20112;-89
2023/05/07 15:48:47;;;;;;;0.35;0.35;;;;;;;23.02;65.40;99920.56;4861664;29;20048;-88
2023/05/07 15:51:12;;;;;;;0.40;0.40;;;;;;;22.99;66.75;99937.84;4898389;29;20502;-88
2023/05/07 15:53:39;;;;;;;0.80;0.65;;;;;;;22.73;65.01;99916.41;4914229;29;20082;-89
2023/05/07 15:56:06;;;;;;;0.45;0.45;;;;;;;22.60;67.51;99916.22;4914577;29;20578;-88
2023/05/07 15:58:31;;;;;;;0.90;0.80;;;;;;;22.56;68.08;99907.25;4899473;29;20044;-89
2023/05/07 16:00:58;;;;;;;0.52;0.52;;;;;;;22.63;67.23;99934.97;4915105;29;20421;-92
2023/05/07 16:03:25;;;;;;;1.08;0.70;;;;;;;22.56;67.71;99934.75;4886137;29;20115;-93
2023/05/07 16:05:51;;;;;;;0.50;0.40;;;;;;;22.49;68.91;99935.28;4902038;29;20051;-92
2023/05/07 16:08:16;;;;;;;0.63;0.63;;;;;;;22.41;70.23;99934.28;4894204;29;20036;-92
2023/05/07 16:10:42;;;;;;;0.45;0.45;;;;;;;22.36;70.83;99932.28;4888791;29;20048;-92
2023/05/07 16:13:07;;;;;;;2.25;1.20;;;;;;;22.24;70.02;99909.69;4889079;29;20127;-92
2023/05/07 16:15:33;;;;;;;1.55;0.70;;;;;;;22.16;70.52;99925.66;4885541;29;20525;-91
2023/05/07 16:17:59;;;;;;;0.60;0.60;;;;;;;22.03;72.25;99905.72;4880649;29;20052;-92
2023/05/07 16:20:29;;;;;;;2.08;0.77;;;;;;;22.16;73.08;99936.22;4878239;29;20048;-91
2023/05/07 16:22:55;;;;;;;0.93;0.90;;;;;;;22.16;73.17;99936.97;4885302;29;20048;-92
2023/05/07 16:25:21;;;;;;;0.82;0.30;;;;;;;21.88;73.09;99927.78;4875762;29;20037;-93
2023/05/07 16:27:46;;;;;;;0.50;0.50;;;;;;;21.78;74.92;99929.38;4887873;29;20032;-94